sensor_id;sensor_type;location;lat;lon;timestamp;P1;durP1;ratioP1;P2;durP2;ratioP2
58302;SDS011;44109;52.398;7.024;2023-02-28T00:01:22;8.32;;;4.03;;
58302;SDS011;44109;52.398;7.024;2023-02-28T00:03:50;8.13;;;4.15;;
58302;SDS011;44109;52.398;7.024;2023-02-28T00:06:18;7.00;;;4.18;;
58302;SDS011;44109;52.398;7.024;2023-02-28T00:08:48;7.45;;;4.35;;
58302;SDS011;44109;52.398;7.024;2023-02-28T00:11:15;5.53;;;3.92;;
58302;SDS011;44109;52.398;7.024;2023-02-28T00:13:44;6.88;;;4.30;;
58302;SDS011;44109;52.398;7.024;2023-02-28T00:16:14;6.03;;;4.70;;
58302;SDS011;44109;52.398;7.024;2023-02-28T00:18:44;6.40;;;4.63;;
58302;SDS011;44109;52.398;7.024;2023-02-28T00:21:13;6.93;;;4.25;;
58302;SDS011;44109;52.398;7.024;2023-02-28T00:23:41;6.43;;;4.47;;
58302;SDS011;44109;52.398;7.024;2023-02-28T00:26:10;7.32;;;4.53;;
58302;SDS011;44109;52.398;7.024;2023-02-28T00:28:38;7.05;;;4.18;;
58302;SDS011;44109;52.398;7.024;2023-02-28T00:31:06;6.82;;;4.32;;
58302;SDS011;44109;52.398;7.024;2023-02-28T00:33:33;10.88;;;5.07;;
58302;SDS011;44109;52.398;7.024;2023-02-28T00:36:02;6.13;;;4.40;;
58302;SDS011;44109;52.398;7.024;2023-02-28T00:38:33;8.68;;;4.57;;
58302;SDS011;44109;52.398;7.024;2023-02-28T00:41:00;6.50;;;4.90;;
58302;SDS011;44109;52.398;7.024;2023-02-28T00:43:32;7.80;;;4.63;;
58302;SDS011;44109;52.398;7.024;2023-02-28T00:46:02;5.28;;;3.85;;
58302;SDS011;44109;52.398;7.024;2023-02-28T00:48:31;7.35;;;4.70;;
58302;SDS011;44109;52.398;7.024;2023-02-28T00:50:59;7.25;;;4.43;;
58302;SDS011;44109;52.398;7.024;2023-02-28T00:53:27;6.40;;;4.45;;
58302;SDS011;44109;52.398;7.024;2023-02-28T00:55:55;6.03;;;4.43;;
58302;SDS011;44109;52.398;7.024;2023-02-28T00:58:23;6.40;;;4.07;;
58302;SDS011;44109;52.398;7.024;2023-02-28T01:00:52;8.20;;;4.18;;
58302;SDS011;44109;52.398;7.024;2023-02-28T01:03:21;7.88;;;5.10;;
58302;SDS011;44109;52.398;7.024;2023-02-28T01:05:50;6.97;;;4.97;;
58302;SDS011;44109;52.398;7.024;2023-02-28T01:08:18;6.95;;;4.57;;
58302;SDS011;44109;52.398;7.024;2023-02-28T01:10:46;7.10;;;4.82;;
58302;SDS011;44109;52.398;7.024;2023-02-28T01:13:15;6.65;;;4.35;;
58302;SDS011;44109;52.398;7.024;2023-02-28T01:15:43;6.70;;;4.45;;
58302;SDS011;44109;52.398;7.024;2023-02-28T01:18:17;9.68;;;4.07;;
58302;SDS011;44109;52.398;7.024;2023-02-28T01:20:45;6.95;;;5.00;;
58302;SDS011;44109;52.398;7.024;2023-02-28T01:23:13;6.32;;;4.28;;
58302;SDS011;44109;52.398;7.024;2023-02-28T01:25:41;6.18;;;4.20;;
58302;SDS011;44109;52.398;7.024;2023-02-28T01:28:08;6.80;;;3.95;;
58302;SDS011;44109;52.398;7.024;2023-02-28T01:30:36;10.30;;;4.70;;
58302;SDS011;44109;52.398;7.024;2023-02-28T01:33:04;6.65;;;4.75;;
58302;SDS011;44109;52.398;7.024;2023-02-28T01:35:33;7.35;;;4.20;;
58302;SDS011;44109;52.398;7.024;2023-02-28T01:38:02;7.80;;;4.60;;
58302;SDS011;44109;52.398;7.024;2023-02-28T01:40:30;8.38;;;4.65;;
58302;SDS011;44109;52.398;7.024;2023-02-28T01:42:57;6.50;;;4.10;;
58302;SDS011;44109;52.398;7.024;2023-02-28T01:45:26;7.97;;;4.68;;
58302;SDS011;44109;52.398;7.024;2023-02-28T01:47:57;7.05;;;4.88;;
58302;SDS011;44109;52.398;7.024;2023-02-28T01:50:31;6.07;;;4.38;;
58302;SDS011;44109;52.398;7.024;2023-02-28T01:53:10;6.60;;;4.18;;
58302;SDS011;44109;52.398;7.024;2023-02-28T01:55:45;6.88;;;3.88;;
58302;SDS011;44109;52.398;7.024;2023-02-28T01:58:18;7.57;;;4.30;;
58302;SDS011;44109;52.398;7.024;2023-02-28T02:00:48;7.90;;;4.40;;
58302;SDS011;44109;52.398;7.024;2023-02-28T02:03:16;6.25;;;4.15;;
58302;SDS011;44109;52.398;7.024;2023-02-28T02:05:48;7.03;;;4.57;;
58302;SDS011;44109;52.398;7.024;2023-02-28T02:08:17;6.97;;;3.88;;
58302;SDS011;44109;52.398;7.024;2023-02-28T02:10:48;6.00;;;3.95;;
58302;SDS011;44109;52.398;7.024;2023-02-28T02:13:29;8.70;;;4.80;;
58302;SDS011;44109;52.398;7.024;2023-02-28T02:16:34;5.90;;;4.22;;
58302;SDS011;44109;52.398;7.024;2023-02-28T02:19:26;7.95;;;4.90;;
58302;SDS011;44109;52.398;7.024;2023-02-28T02:22:47;10.23;;;4.70;;
58302;SDS011;44109;52.398;7.024;2023-02-28T02:25:54;6.95;;;4.65;;
58302;SDS011;44109;52.398;7.024;2023-02-28T02:28:42;8.65;;;5.18;;
58302;SDS011;44109;52.398;7.024;2023-02-28T02:31:51;7.93;;;4.95;;
58302;SDS011;44109;52.398;7.024;2023-02-28T02:34:59;9.98;;;4.78;;
58302;SDS011;44109;52.398;7.024;2023-02-28T02:37:39;7.50;;;4.88;;
58302;SDS011;44109;52.398;7.024;2023-02-28T02:40:16;8.82;;;4.38;;
58302;SDS011;44109;52.398;7.024;2023-02-28T02:42:50;10.00;;;5.28;;
58302;SDS011;44109;52.398;7.024;2023-02-28T02:45:27;6.82;;;4.43;;
58302;SDS011;44109;52.398;7.024;2023-02-28T02:48:02;9.38;;;4.68;;
58302;SDS011;44109;52.398;7.024;2023-02-28T02:50:39;6.43;;;3.72;;
58302;SDS011;44109;52.398;7.024;2023-02-28T02:53:12;7.22;;;4.15;;
58302;SDS011;44109;52.398;7.024;2023-02-28T02:55:47;7.45;;;4.90;;
58302;SDS011;44109;52.398;7.024;2023-02-28T02:58:21;7.82;;;4.30;;
58302;SDS011;44109;52.398;7.024;2023-02-28T03:00:55;6.25;;;4.57;;
58302;SDS011;44109;52.398;7.024;2023-02-28T03:05:59;5.88;;;3.65;;
58302;SDS011;44109;52.398;7.024;2023-02-28T03:08:29;10.60;;;4.28;;
58302;SDS011;44109;52.398;7.024;2023-02-28T03:11:03;8.18;;;4.80;;
58302;SDS011;44109;52.398;7.024;2023-02-28T03:16:55;8.13;;;4.45;;
58302;SDS011;44109;52.398;7.024;2023-02-28T03:20:04;7.30;;;4.53;;
58302;SDS011;44109;52.398;7.024;2023-02-28T03:22:53;9.57;;;4.13;;
58302;SDS011;44109;52.398;7.024;2023-02-28T03:25:39;5.97;;;4.20;;
58302;SDS011;44109;52.398;7.024;2023-02-28T03:28:21;7.88;;;4.70;;
58302;SDS011;44109;52.398;7.024;2023-02-28T03:30:59;7.50;;;4.00;;
58302;SDS011;44109;52.398;7.024;2023-02-28T03:33:38;6.68;;;3.70;;
58302;SDS011;44109;52.398;7.024;2023-02-28T03:36:13;7.07;;;4.95;;
58302;SDS011;44109;52.398;7.024;2023-02-28T03:38:48;6.32;;;4.10;;
58302;SDS011;44109;52.398;7.024;2023-02-28T03:41:22;7.20;;;4.55;;
58302;SDS011;44109;52.398;7.024;2023-02-28T03:43:58;5.45;;;3.38;;
58302;SDS011;44109;52.398;7.024;2023-02-28T03:46:42;6.72;;;4.53;;
58302;SDS011;44109;52.398;7.024;2023-02-28T03:49:16;6.88;;;4.10;;
58302;SDS011;44109;52.398;7.024;2023-02-28T03:51:50;6.28;;;3.72;;
58302;SDS011;44109;52.398;7.024;2023-02-28T03:54:25;7.15;;;4.50;;
58302;SDS011;44109;52.398;7.024;2023-02-28T03:57:02;7.88;;;4.35;;
58302;SDS011;44109;52.398;7.024;2023-02-28T03:59:39;5.40;;;3.97;;
58302;SDS011;44109;52.398;7.024;2023-02-28T04:02:15;5.88;;;4.05;;
58302;SDS011;44109;52.398;7.024;2023-02-28T04:04:44;7.22;;;4.65;;
58302;SDS011;44109;52.398;7.024;2023-02-28T04:07:14;7.05;;;4.43;;
58302;SDS011;44109;52.398;7.024;2023-02-28T04:09:44;5.80;;;3.45;;
58302;SDS011;44109;52.398;7.024;2023-02-28T04:12:11;4.57;;;3.25;;
58302;SDS011;44109;52.398;7.024;2023-02-28T04:14:39;5.75;;;4.43;;
58302;SDS011;44109;52.398;7.024;2023-02-28T04:17:06;8.95;;;3.95;;
58302;SDS011;44109;52.398;7.024;2023-02-28T04:19:34;6.80;;;4.68;;
58302;SDS011;44109;52.398;7.024;2023-02-28T04:22:02;6.00;;;4.28;;
58302;SDS011;44109;52.398;7.024;2023-02-28T04:24:29;9.73;;;3.67;;
58302;SDS011;44109;52.398;7.024;2023-02-28T04:26:58;7.65;;;4.65;;
58302;SDS011;44109;52.398;7.024;2023-02-28T04:29:27;6.97;;;4.35;;
58302;SDS011;44109;52.398;7.024;2023-02-28T04:31:56;7.55;;;4.60;;
58302;SDS011;44109;52.398;7.024;2023-02-28T04:34:26;9.20;;;4.18;;
58302;SDS011;44109;52.398;7.024;2023-02-28T04:36:54;6.75;;;4.18;;
58302;SDS011;44109;52.398;7.024;2023-02-28T04:39:23;5.85;;;4.28;;
58302;SDS011;44109;52.398;7.024;2023-02-28T04:41:51;5.65;;;3.72;;
58302;SDS011;44109;52.398;7.024;2023-02-28T04:44:20;7.47;;;4.40;;
58302;SDS011;44109;52.398;7.024;2023-02-28T04:46:48;5.95;;;3.83;;
58302;SDS011;44109;52.398;7.024;2023-02-28T04:49:17;9.18;;;4.72;;
58302;SDS011;44109;52.398;7.024;2023-02-28T04:51:44;6.28;;;4.35;;
58302;SDS011;44109;52.398;7.024;2023-02-28T04:54:12;5.50;;;3.60;;
58302;SDS011;44109;52.398;7.024;2023-02-28T04:56:41;6.07;;;4.28;;
58302;SDS011;44109;52.398;7.024;2023-02-28T04:59:09;5.38;;;3.65;;
58302;SDS011;44109;52.398;7.024;2023-02-28T05:01:38;6.72;;;4.07;;
58302;SDS011;44109;52.398;7.024;2023-02-28T05:04:05;6.10;;;4.20;;
58302;SDS011;44109;52.398;7.024;2023-02-28T05:06:33;7.00;;;4.72;;
58302;SDS011;44109;52.398;7.024;2023-02-28T05:09:01;7.20;;;4.13;;
58302;SDS011;44109;52.398;7.024;2023-02-28T05:11:30;7.07;;;4.35;;
58302;SDS011;44109;52.398;7.024;2023-02-28T05:14:01;5.78;;;3.90;;
58302;SDS011;44109;52.398;7.024;2023-02-28T05:16:30;8.18;;;3.85;;
58302;SDS011;44109;52.398;7.024;2023-02-28T05:19:00;7.07;;;4.13;;
58302;SDS011;44109;52.398;7.024;2023-02-28T05:21:28;6.45;;;3.70;;
58302;SDS011;44109;52.398;7.024;2023-02-28T05:23:59;6.45;;;4.20;;
58302;SDS011;44109;52.398;7.024;2023-02-28T05:26:29;7.55;;;4.65;;
58302;SDS011;44109;52.398;7.024;2023-02-28T05:28:58;6.40;;;4.10;;
58302;SDS011;44109;52.398;7.024;2023-02-28T05:31:25;6.90;;;4.38;;
58302;SDS011;44109;52.398;7.024;2023-02-28T05:33:53;6.93;;;4.68;;
58302;SDS011;44109;52.398;7.024;2023-02-28T05:36:22;6.43;;;4.75;;
58302;SDS011;44109;52.398;7.024;2023-02-28T05:38:50;9.02;;;4.80;;
58302;SDS011;44109;52.398;7.024;2023-02-28T05:41:18;8.32;;;4.55;;
58302;SDS011;44109;52.398;7.024;2023-02-28T05:43:47;6.70;;;4.65;;
58302;SDS011;44109;52.398;7.024;2023-02-28T05:46:15;7.28;;;4.47;;
58302;SDS011;44109;52.398;7.024;2023-02-28T05:48:45;7.45;;;5.18;;
58302;SDS011;44109;52.398;7.024;2023-02-28T05:51:14;10.43;;;5.20;;
58302;SDS011;44109;52.398;7.024;2023-02-28T05:53:44;9.48;;;4.95;;
58302;SDS011;44109;52.398;7.024;2023-02-28T05:56:13;9.77;;;5.35;;
58302;SDS011;44109;52.398;7.024;2023-02-28T05:58:41;8.88;;;5.13;;
58302;SDS011;44109;52.398;7.024;2023-02-28T06:01:22;9.70;;;6.32;;
58302;SDS011;44109;52.398;7.024;2023-02-28T06:03:58;8.68;;;6.15;;
58302;SDS011;44109;52.398;7.024;2023-02-28T06:06:27;10.65;;;7.03;;
58302;SDS011;44109;52.398;7.024;2023-02-28T06:08:57;9.40;;;7.43;;
58302;SDS011;44109;52.398;7.024;2023-02-28T06:11:25;9.63;;;6.88;;
58302;SDS011;44109;52.398;7.024;2023-02-28T06:13:53;10.02;;;6.40;;
58302;SDS011;44109;52.398;7.024;2023-02-28T06:16:23;9.40;;;6.38;;
58302;SDS011;44109;52.398;7.024;2023-02-28T06:18:51;9.88;;;6.30;;
58302;SDS011;44109;52.398;7.024;2023-02-28T06:21:21;7.43;;;5.40;;
58302;SDS011;44109;52.398;7.024;2023-02-28T06:23:49;7.97;;;5.72;;
58302;SDS011;44109;52.398;7.024;2023-02-28T06:26:19;9.43;;;6.45;;
58302;SDS011;44109;52.398;7.024;2023-02-28T06:28:47;7.88;;;5.57;;
58302;SDS011;44109;52.398;7.024;2023-02-28T06:31:16;9.45;;;5.53;;
58302;SDS011;44109;52.398;7.024;2023-02-28T06:33:45;10.05;;;6.72;;
58302;SDS011;44109;52.398;7.024;2023-02-28T06:36:14;7.63;;;5.20;;
58302;SDS011;44109;52.398;7.024;2023-02-28T06:38:43;8.80;;;5.20;;
58302;SDS011;44109;52.398;7.024;2023-02-28T06:41:11;13.35;;;6.18;;
58302;SDS011;44109;52.398;7.024;2023-02-28T06:43:41;7.55;;;6.32;;
58302;SDS011;44109;52.398;7.024;2023-02-28T06:46:10;8.95;;;5.78;;
58302;SDS011;44109;52.398;7.024;2023-02-28T06:48:40;8.95;;;5.95;;
58302;SDS011;44109;52.398;7.024;2023-02-28T06:51:11;9.35;;;6.07;;
58302;SDS011;44109;52.398;7.024;2023-02-28T06:53:40;8.95;;;5.72;;
58302;SDS011;44109;52.398;7.024;2023-02-28T06:56:09;7.55;;;5.78;;
58302;SDS011;44109;52.398;7.024;2023-02-28T06:58:40;8.27;;;5.78;;
58302;SDS011;44109;52.398;7.024;2023-02-28T07:01:09;7.78;;;5.85;;
58302;SDS011;44109;52.398;7.024;2023-02-28T07:03:37;12.45;;;6.25;;
58302;SDS011;44109;52.398;7.024;2023-02-28T07:06:05;11.73;;;6.72;;
58302;SDS011;44109;52.398;7.024;2023-02-28T07:08:33;10.35;;;6.22;;
58302;SDS011;44109;52.398;7.024;2023-02-28T07:11:03;9.25;;;6.55;;
58302;SDS011;44109;52.398;7.024;2023-02-28T07:13:31;8.25;;;5.53;;
58302;SDS011;44109;52.398;7.024;2023-02-28T07:16:01;9.38;;;6.50;;
58302;SDS011;44109;52.398;7.024;2023-02-28T07:18:32;7.88;;;6.30;;
58302;SDS011;44109;52.398;7.024;2023-02-28T07:21:01;7.85;;;6.05;;
58302;SDS011;44109;52.398;7.024;2023-02-28T07:23:29;9.85;;;4.88;;
58302;SDS011;44109;52.398;7.024;2023-02-28T07:25:57;8.73;;;5.72;;
58302;SDS011;44109;52.398;7.024;2023-02-28T07:28:24;9.07;;;5.30;;
58302;SDS011;44109;52.398;7.024;2023-02-28T07:30:53;7.60;;;4.57;;
58302;SDS011;44109;52.398;7.024;2023-02-28T07:33:22;8.80;;;4.85;;
58302;SDS011;44109;52.398;7.024;2023-02-28T07:35:50;7.50;;;4.72;;
58302;SDS011;44109;52.398;7.024;2023-02-28T07:38:18;6.82;;;4.50;;
58302;SDS011;44109;52.398;7.024;2023-02-28T07:40:45;7.35;;;5.55;;
58302;SDS011;44109;52.398;7.024;2023-02-28T07:43:13;11.35;;;7.90;;
58302;SDS011;44109;52.398;7.024;2023-02-28T07:45:41;16.83;;;11.40;;
58302;SDS011;44109;52.398;7.024;2023-02-28T07:48:08;15.48;;;11.90;;
58302;SDS011;44109;52.398;7.024;2023-02-28T07:50:37;17.92;;;12.30;;
58302;SDS011;44109;52.398;7.024;2023-02-28T07:53:05;14.65;;;11.75;;
58302;SDS011;44109;52.398;7.024;2023-02-28T07:55:32;12.48;;;8.32;;
58302;SDS011;44109;52.398;7.024;2023-02-28T07:58:00;10.32;;;7.57;;
58302;SDS011;44109;52.398;7.024;2023-02-28T08:00:28;8.90;;;7.60;;
58302;SDS011;44109;52.398;7.024;2023-02-28T08:02:57;10.98;;;5.85;;
58302;SDS011;44109;52.398;7.024;2023-02-28T08:05:25;6.93;;;5.18;;
58302;SDS011;44109;52.398;7.024;2023-02-28T08:07:54;7.30;;;4.90;;
58302;SDS011;44109;52.398;7.024;2023-02-28T08:10:21;6.15;;;4.03;;
58302;SDS011;44109;52.398;7.024;2023-02-28T08:12:49;7.28;;;4.63;;
58302;SDS011;44109;52.398;7.024;2023-02-28T08:15:20;6.93;;;4.20;;
58302;SDS011;44109;52.398;7.024;2023-02-28T08:17:47;6.05;;;2.97;;
58302;SDS011;44109;52.398;7.024;2023-02-28T08:20:15;4.72;;;2.60;;
58302;SDS011;44109;52.398;7.024;2023-02-28T08:22:43;4.28;;;2.42;;
58302;SDS011;44109;52.398;7.024;2023-02-28T08:25:12;3.88;;;1.90;;
58302;SDS011;44109;52.398;7.024;2023-02-28T08:27:39;4.32;;;1.98;;
58302;SDS011;44109;52.398;7.024;2023-02-28T08:30:08;5.13;;;3.05;;
58302;SDS011;44109;52.398;7.024;2023-02-28T08:32:38;5.38;;;2.60;;
58302;SDS011;44109;52.398;7.024;2023-02-28T08:35:06;2.97;;;1.85;;
58302;SDS011;44109;52.398;7.024;2023-02-28T08:37:36;3.05;;;1.90;;
58302;SDS011;44109;52.398;7.024;2023-02-28T08:40:04;2.83;;;1.65;;
58302;SDS011;44109;52.398;7.024;2023-02-28T08:42:34;2.75;;;1.90;;
58302;SDS011;44109;52.398;7.024;2023-02-28T08:45:02;3.17;;;1.65;;
58302;SDS011;44109;52.398;7.024;2023-02-28T08:47:31;3.35;;;1.58;;
58302;SDS011;44109;52.398;7.024;2023-02-28T08:49:59;3.00;;;1.65;;
58302;SDS011;44109;52.398;7.024;2023-02-28T08:52:26;2.42;;;1.40;;
58302;SDS011;44109;52.398;7.024;2023-02-28T08:54:54;2.20;;;1.52;;
58302;SDS011;44109;52.398;7.024;2023-02-28T08:57:21;3.10;;;1.73;;
58302;SDS011;44109;52.398;7.024;2023-02-28T08:59:53;2.60;;;1.42;;
58302;SDS011;44109;52.398;7.024;2023-02-28T09:02:20;2.15;;;1.45;;
58302;SDS011;44109;52.398;7.024;2023-02-28T09:04:48;1.95;;;1.45;;
58302;SDS011;44109;52.398;7.024;2023-02-28T09:07:16;2.85;;;1.63;;
58302;SDS011;44109;52.398;7.024;2023-02-28T09:09:43;3.92;;;1.05;;
58302;SDS011;44109;52.398;7.024;2023-02-28T09:12:20;2.80;;;1.63;;
58302;SDS011;44109;52.398;7.024;2023-02-28T09:14:48;2.85;;;1.60;;
58302;SDS011;44109;52.398;7.024;2023-02-28T09:17:17;2.78;;;1.48;;
58302;SDS011;44109;52.398;7.024;2023-02-28T09:19:47;1.95;;;1.00;;
58302;SDS011;44109;52.398;7.024;2023-02-28T09:22:15;3.20;;;1.42;;
58302;SDS011;44109;52.398;7.024;2023-02-28T09:24:43;2.78;;;1.30;;
58302;SDS011;44109;52.398;7.024;2023-02-28T09:27:11;1.88;;;1.02;;
58302;SDS011;44109;52.398;7.024;2023-02-28T09:29:38;2.28;;;1.38;;
58302;SDS011;44109;52.398;7.024;2023-02-28T09:32:06;2.20;;;1.30;;
58302;SDS011;44109;52.398;7.024;2023-02-28T09:34:35;3.67;;;1.27;;
58302;SDS011;44109;52.398;7.024;2023-02-28T09:37:03;2.95;;;1.30;;
58302;SDS011;44109;52.398;7.024;2023-02-28T09:39:30;2.40;;;1.27;;
58302;SDS011;44109;52.398;7.024;2023-02-28T09:41:58;2.88;;;1.33;;
58302;SDS011;44109;52.398;7.024;2023-02-28T09:44:27;2.20;;;0.90;;
58302;SDS011;44109;52.398;7.024;2023-02-28T09:47:05;2.60;;;1.20;;
58302;SDS011;44109;52.398;7.024;2023-02-28T09:49:42;2.92;;;1.27;;
58302;SDS011;44109;52.398;7.024;2023-02-28T09:52:14;2.40;;;1.48;;
58302;SDS011;44109;52.398;7.024;2023-02-28T09:54:46;2.05;;;1.13;;
58302;SDS011;44109;52.398;7.024;2023-02-28T09:57:15;1.95;;;1.08;;
58302;SDS011;44109;52.398;7.024;2023-02-28T09:59:54;1.42;;;1.00;;
58302;SDS011;44109;52.398;7.024;2023-02-28T10:02:45;2.53;;;1.00;;
58302;SDS011;44109;52.398;7.024;2023-02-28T10:05:27;1.88;;;1.00;;
58302;SDS011;44109;52.398;7.024;2023-02-28T10:08:03;1.60;;;0.80;;
58302;SDS011;44109;52.398;7.024;2023-02-28T10:10:41;1.50;;;0.95;;
58302;SDS011;44109;52.398;7.024;2023-02-28T10:13:14;3.67;;;1.40;;
58302;SDS011;44109;52.398;7.024;2023-02-28T10:15:51;2.38;;;1.17;;
58302;SDS011;44109;52.398;7.024;2023-02-28T10:18:26;3.38;;;1.23;;
58302;SDS011;44109;52.398;7.024;2023-02-28T10:21:02;2.53;;;1.27;;
58302;SDS011;44109;52.398;7.024;2023-02-28T10:23:31;2.78;;;1.08;;
58302;SDS011;44109;52.398;7.024;2023-02-28T10:26:08;1.83;;;1.10;;
58302;SDS011;44109;52.398;7.024;2023-02-28T10:28:41;1.92;;;1.02;;
58302;SDS011;44109;52.398;7.024;2023-02-28T10:31:11;1.30;;;1.00;;
58302;SDS011;44109;52.398;7.024;2023-02-28T10:33:44;1.20;;;0.85;;
58302;SDS011;44109;52.398;7.024;2023-02-28T10:36:14;1.90;;;1.40;;
58302;SDS011;44109;52.398;7.024;2023-02-28T10:38:45;2.25;;;1.20;;
58302;SDS011;44109;52.398;7.024;2023-02-28T10:41:14;2.22;;;1.23;;
58302;SDS011;44109;52.398;7.024;2023-02-28T10:43:53;2.78;;;1.30;;
58302;SDS011;44109;52.398;7.024;2023-02-28T10:46:41;3.42;;;1.08;;
58302;SDS011;44109;52.398;7.024;2023-02-28T10:49:14;1.95;;;1.00;;
58302;SDS011;44109;52.398;7.024;2023-02-28T10:51:51;1.73;;;1.38;;
58302;SDS011;44109;52.398;7.024;2023-02-28T10:54:23;1.80;;;1.20;;
58302;SDS011;44109;52.398;7.024;2023-02-28T10:57:05;2.97;;;1.77;;
58302;SDS011;44109;52.398;7.024;2023-02-28T10:59:44;1.85;;;1.40;;
58302;SDS011;44109;52.398;7.024;2023-02-28T11:02:30;1.73;;;1.10;;
58302;SDS011;44109;52.398;7.024;2023-02-28T11:05:02;2.67;;;1.20;;
58302;SDS011;44109;52.398;7.024;2023-02-28T11:07:52;2.63;;;1.55;;
58302;SDS011;44109;52.398;7.024;2023-02-28T11:10:23;1.63;;;0.98;;
58302;SDS011;44109;52.398;7.024;2023-02-28T11:12:58;1.65;;;1.00;;
58302;SDS011;44109;52.398;7.024;2023-02-28T11:15:26;2.42;;;1.20;;
58302;SDS011;44109;52.398;7.024;2023-02-28T11:17:57;2.90;;;1.42;;
58302;SDS011;44109;52.398;7.024;2023-02-28T11:20:29;2.20;;;1.20;;
58302;SDS011;44109;52.398;7.024;2023-02-28T11:23:02;2.28;;;1.00;;
58302;SDS011;44109;52.398;7.024;2023-02-28T11:25:32;1.80;;;1.08;;
58302;SDS011;44109;52.398;7.024;2023-02-28T11:28:04;1.75;;;0.93;;
58302;SDS011;44109;52.398;7.024;2023-02-28T11:30:34;2.55;;;1.20;;
58302;SDS011;44109;52.398;7.024;2023-02-28T11:33:23;2.42;;;1.13;;
58302;SDS011;44109;52.398;7.024;2023-02-28T11:35:57;2.55;;;1.30;;
58302;SDS011;44109;52.398;7.024;2023-02-28T11:38:31;2.28;;;1.08;;
58302;SDS011;44109;52.398;7.024;2023-02-28T11:41:05;3.23;;;1.10;;
58302;SDS011;44109;52.398;7.024;2023-02-28T11:44:12;2.97;;;1.52;;
58302;SDS011;44109;52.398;7.024;2023-02-28T11:46:59;2.28;;;1.02;;
58302;SDS011;44109;52.398;7.024;2023-02-28T11:49:42;1.20;;;0.82;;
58302;SDS011;44109;52.398;7.024;2023-02-28T11:52:28;2.95;;;1.30;;
58302;SDS011;44109;52.398;7.024;2023-02-28T11:55:09;2.60;;;1.40;;
58302;SDS011;44109;52.398;7.024;2023-02-28T11:57:52;1.17;;;0.95;;
58302;SDS011;44109;52.398;7.024;2023-02-28T12:00:46;1.67;;;1.17;;
58302;SDS011;44109;52.398;7.024;2023-02-28T12:03:33;2.22;;;1.15;;
58302;SDS011;44109;52.398;7.024;2023-02-28T12:06:18;2.05;;;1.27;;
58302;SDS011;44109;52.398;7.024;2023-02-28T12:09:00;3.33;;;1.20;;
58302;SDS011;44109;52.398;7.024;2023-02-28T12:11:47;2.10;;;1.10;;
58302;SDS011;44109;52.398;7.024;2023-02-28T12:14:27;2.22;;;1.17;;
58302;SDS011;44109;52.398;7.024;2023-02-28T12:17:20;3.35;;;1.52;;
58302;SDS011;44109;52.398;7.024;2023-02-28T12:20:05;1.98;;;1.00;;
58302;SDS011;44109;52.398;7.024;2023-02-28T12:22:52;3.00;;;1.55;;
58302;SDS011;44109;52.398;7.024;2023-02-28T12:25:40;1.40;;;1.08;;
58302;SDS011;44109;52.398;7.024;2023-02-28T12:28:25;2.25;;;1.70;;
58302;SDS011;44109;52.398;7.024;2023-02-28T12:31:00;2.67;;;1.23;;
58302;SDS011;44109;52.398;7.024;2023-02-28T12:33:36;2.67;;;1.33;;
58302;SDS011;44109;52.398;7.024;2023-02-28T12:36:13;4.40;;;1.30;;
58302;SDS011;44109;52.398;7.024;2023-02-28T12:38:48;1.88;;;1.23;;
58302;SDS011;44109;52.398;7.024;2023-02-28T12:41:25;1.58;;;1.00;;
58302;SDS011;44109;52.398;7.024;2023-02-28T12:44:03;2.60;;;1.30;;
58302;SDS011;44109;52.398;7.024;2023-02-28T12:46:38;2.15;;;1.02;;
58302;SDS011;44109;52.398;7.024;2023-02-28T12:49:13;2.38;;;1.50;;
58302;SDS011;44109;52.398;7.024;2023-02-28T12:51:47;1.77;;;1.30;;
58302;SDS011;44109;52.398;7.024;2023-02-28T12:54:19;2.15;;;1.17;;
58302;SDS011;44109;52.398;7.024;2023-02-28T12:56:58;1.95;;;1.30;;
58302;SDS011;44109;52.398;7.024;2023-02-28T12:59:40;2.05;;;1.20;;
58302;SDS011;44109;52.398;7.024;2023-02-28T13:02:24;2.30;;;1.02;;
58302;SDS011;44109;52.398;7.024;2023-02-28T13:05:31;3.05;;;1.33;;
58302;SDS011;44109;52.398;7.024;2023-02-28T13:08:43;2.88;;;1.55;;
58302;SDS011;44109;52.398;7.024;2023-02-28T13:11:38;3.75;;;1.45;;
58302;SDS011;44109;52.398;7.024;2023-02-28T13:14:20;1.88;;;0.90;;
58302;SDS011;44109;52.398;7.024;2023-02-28T13:17:03;2.83;;;1.63;;
58302;SDS011;44109;52.398;7.024;2023-02-28T13:19:45;2.88;;;1.45;;
58302;SDS011;44109;52.398;7.024;2023-02-28T13:22:37;1.75;;;1.10;;
58302;SDS011;44109;52.398;7.024;2023-02-28T13:31:31;1.77;;;1.10;;
58302;SDS011;44109;52.398;7.024;2023-02-28T13:34:13;3.00;;;1.27;;
58302;SDS011;44109;52.398;7.024;2023-02-28T13:36:43;2.13;;;1.30;;
58302;SDS011;44109;52.398;7.024;2023-02-28T13:42:22;2.20;;;1.25;;
58302;SDS011;44109;52.398;7.024;2023-02-28T13:45:22;1.33;;;0.90;;
58302;SDS011;44109;52.398;7.024;2023-02-28T13:47:54;1.88;;;1.45;;
58302;SDS011;44109;52.398;7.024;2023-02-28T13:50:29;2.55;;;1.02;;
58302;SDS011;44109;52.398;7.024;2023-02-28T13:56:27;2.15;;;1.20;;
58302;SDS011;44109;52.398;7.024;2023-02-28T13:59:17;3.15;;;1.20;;
58302;SDS011;44109;52.398;7.024;2023-02-28T14:02:01;1.73;;;1.20;;
58302;SDS011;44109;52.398;7.024;2023-02-28T14:05:04;1.52;;;1.25;;
58302;SDS011;44109;52.398;7.024;2023-02-28T14:07:42;1.35;;;0.98;;
58302;SDS011;44109;52.398;7.024;2023-02-28T14:10:21;2.05;;;1.15;;
58302;SDS011;44109;52.398;7.024;2023-02-28T14:12:55;1.58;;;0.95;;
58302;SDS011;44109;52.398;7.024;2023-02-28T14:15:46;1.77;;;1.38;;
58302;SDS011;44109;52.398;7.024;2023-02-28T14:18:24;1.88;;;1.27;;
58302;SDS011;44109;52.398;7.024;2023-02-28T14:21:08;2.95;;;1.45;;
58302;SDS011;44109;52.398;7.024;2023-02-28T14:23:54;2.92;;;1.40;;
58302;SDS011;44109;52.398;7.024;2023-02-28T14:33:18;3.60;;;1.15;;
58302;SDS011;44109;52.398;7.024;2023-02-28T14:36:00;2.42;;;1.30;;
58302;SDS011;44109;52.398;7.024;2023-02-28T14:38:40;2.60;;;1.33;;
58302;SDS011;44109;52.398;7.024;2023-02-28T14:41:16;1.70;;;1.30;;
58302;SDS011;44109;52.398;7.024;2023-02-28T14:43:56;1.73;;;1.20;;
58302;SDS011;44109;52.398;7.024;2023-02-28T14:46:27;2.05;;;1.17;;
58302;SDS011;44109;52.398;7.024;2023-02-28T14:49:04;2.92;;;1.40;;
58302;SDS011;44109;52.398;7.024;2023-02-28T14:51:33;1.33;;;1.05;;
58302;SDS011;44109;52.398;7.024;2023-02-28T14:54:02;2.05;;;1.05;;
58302;SDS011;44109;52.398;7.024;2023-02-28T14:56:34;2.92;;;1.63;;
58302;SDS011;44109;52.398;7.024;2023-02-28T14:59:17;2.67;;;1.33;;
58302;SDS011;44109;52.398;7.024;2023-02-28T15:04:43;2.08;;;1.30;;
58302;SDS011;44109;52.398;7.024;2023-02-28T15:07:21;1.75;;;1.20;;
58302;SDS011;44109;52.398;7.024;2023-02-28T15:10:08;1.45;;;1.08;;
58302;SDS011;44109;52.398;7.024;2023-02-28T15:12:41;1.67;;;1.20;;
58302;SDS011;44109;52.398;7.024;2023-02-28T15:15:19;2.15;;;1.42;;
58302;SDS011;44109;52.398;7.024;2023-02-28T15:17:49;1.80;;;1.27;;
58302;SDS011;44109;52.398;7.024;2023-02-28T15:20:23;2.72;;;1.63;;
58302;SDS011;44109;52.398;7.024;2023-02-28T15:22:53;3.25;;;1.50;;
58302;SDS011;44109;52.398;7.024;2023-02-28T15:25:24;2.35;;;1.52;;
58302;SDS011;44109;52.398;7.024;2023-02-28T15:27:55;1.75;;;1.30;;
58302;SDS011;44109;52.398;7.024;2023-02-28T15:30:24;2.88;;;1.35;;
58302;SDS011;44109;52.398;7.024;2023-02-28T15:33:03;2.25;;;1.30;;
58302;SDS011;44109;52.398;7.024;2023-02-28T15:35:44;1.40;;;0.90;;
58302;SDS011;44109;52.398;7.024;2023-02-28T15:38:14;2.03;;;1.20;;
58302;SDS011;44109;52.398;7.024;2023-02-28T15:40:50;1.92;;;1.35;;
58302;SDS011;44109;52.398;7.024;2023-02-28T15:43:25;2.50;;;1.10;;
58302;SDS011;44109;52.398;7.024;2023-02-28T15:45:56;2.92;;;1.40;;
58302;SDS011;44109;52.398;7.024;2023-02-28T15:48:28;2.80;;;1.85;;
58302;SDS011;44109;52.398;7.024;2023-02-28T15:51:01;2.95;;;1.73;;
58302;SDS011;44109;52.398;7.024;2023-02-28T15:53:35;2.97;;;1.63;;
58302;SDS011;44109;52.398;7.024;2023-02-28T15:56:21;2.53;;;1.50;;